Time;durP1;ratioP1;P1;durP2;ratioP2;P2;SDS_P1;SDS_P2;PMS_P1;PMS_P2;Temp;Humidity;BMP_temperature;BMP_pressure;BME280_temperature;BME280_humidity;BME280_pressure;Samples;Min_cycle;Max_cycle;Signal;HPM_P1;HPM_P2
2021/06/23 00:00:40;;;;;;;9.00;4.28;;;;;;;20.52;100.00;100469.25;1744448;80;21075;-56
2021/06/23 00:03:06;;;;;;;8.83;4.53;;;;;;;20.53;100.00;100473.70;1745696;80;21450;-57
2021/06/23 00:05:33;;;;;;;5.45;4.10;;;;;;;20.53;100.00;100465.05;1744511;80;21021;-57
2021/06/23 00:07:59;;;;;;;12.37;4.90;;;;;;;20.54;100.00;100459.09;1741134;80;20983;-56
2021/06/23 00:10:26;;;;;;;7.42;4.70;;;;;;;20.54;100.00;100462.70;1740679;80;21511;-56
2021/06/23 00:12:54;;;;;;;9.63;4.60;;;;;;;20.54;100.00;100457.73;1737858;80;21349;-56
2021/06/23 00:15:21;;;;;;;9.93;4.25;;;;;;;20.53;100.00;100455.52;1740246;80;21368;-56
2021/06/23 00:17:47;;;;;;;11.50;4.72;;;;;;;20.53;100.00;100454.16;1737767;80;21073;-57
2021/06/23 00:20:14;;;;;;;11.05;4.67;;;;;;;20.52;100.00;100459.23;1744590;80;21554;-59
2021/06/23 00:22:41;;;;;;;10.88;4.90;;;;;;;20.49;100.00;100458.13;1736500;80;21860;-56
2021/06/23 00:25:09;;;;;;;6.92;4.65;;;;;;;20.48;100.00;100456.41;1739030;80;21552;-57
2021/06/23 00:27:35;;;;;;;8.25;4.10;;;;;;;20.50;100.00;100448.09;1752494;80;20974;-57
2021/06/23 00:30:04;;;;;;;8.18;4.40;;;;;;;20.50;100.00;100445.37;1746503;80;20956;-57
2021/06/23 00:32:32;;;;;;;8.88;4.47;;;;;;;20.50;100.00;100444.88;1711554;80;21051;-56
2021/06/23 00:34:58;;;;;;;8.88;4.28;;;;;;;20.50;100.00;100437.20;1717043;81;21769;-57
2021/06/23 00:37:25;;;;;;;11.75;5.17;;;;;;;20.49;100.00;100432.27;1743022;80;21053;-57
2021/06/23 00:39:51;;;;;;;11.33;4.25;;;;;;;20.48;100.00;100431.89;1744394;80;21031;-57
2021/06/23 00:42:18;;;;;;;12.15;4.53;;;;;;;20.49;100.00;100439.55;1750722;80;20988;-57
2021/06/23 00:44:44;;;;;;;8.78;4.60;;;;;;;20.47;100.00;100439.70;1747766;80;21430;-56
2021/06/23 00:47:11;;;;;;;7.20;4.30;;;;;;;20.50;100.00;100439.44;1742932;80;21744;-56
2021/06/23 00:49:38;;;;;;;7.92;3.95;;;;;;;20.51;100.00;100436.20;1684795;82;21384;-56
2021/06/23 00:52:23;;;;;;;;;;;;;;;20.51;100.00;100444.37;1719392;80;21454;-55
2021/06/23 00:54:52;;;;;;;9.58;5.17;;;;;;;20.50;100.00;100443.52;1736659;80;20097;-56
2021/06/23 00:57:20;;;;;;;6.85;4.30;;;;;;;20.47;100.00;100437.82;1744574;80;21746;-56
2021/06/23 00:59:51;;;;;;;12.35;4.40;;;;;;;20.46;100.00;100442.05;1743635;80;21470;-56
2021/06/23 01:02:20;;;;;;;10.58;4.67;;;;;;;20.46;100.00;100443.41;1743161;80;38916;-56
2021/06/23 01:04:49;;;;;;;11.57;4.30;;;;;;;20.44;100.00;100450.33;1748229;80;21116;-56
2021/06/23 01:07:16;;;;;;;15.15;5.20;;;;;;;20.47;100.00;100450.59;1705160;81;20956;-56
2021/06/23 01:09:45;;;;;;;9.63;4.83;;;;;;;20.47;100.00;100457.39;1698163;82;21597;-56
2021/06/23 01:12:29;;;;;;;9.25;5.05;;;;;;;20.44;100.00;100458.50;1668148;84;21581;-56
2021/06/23 01:15:00;;;;;;;9.18;5.30;;;;;;;20.44;100.00;100463.06;1699806;82;20941;-56
2021/06/23 01:17:31;;;;;;;12.37;5.97;;;;;;;20.41;100.00;100458.75;1698594;82;21059;-56
2021/06/23 01:20:12;;;;;;;9.28;5.45;;;;;;;20.33;100.00;100455.29;1737798;81;21688;-56
2021/06/23 01:22:41;;;;;;;11.88;4.90;;;;;;;20.28;100.00;100461.61;1700092;82;20977;-56
2021/06/23 01:25:11;;;;;;;11.30;5.33;;;;;;;20.22;100.00;100462.08;1712993;82;21801;-56
2021/06/23 01:27:40;;;;;;;7.70;6.10;;;;;;;20.18;100.00;100468.28;1701196;82;21254;-56
2021/06/23 01:30:09;;;;;;;12.90;5.50;;;;;;;20.15;100.00;100469.90;1703217;82;20858;-55
2021/06/23 01:32:40;;;;;;;13.45;6.08;;;;;;;20.13;100.00;100469.16;1704386;82;21403;-56
2021/06/23 01:35:08;;;;;;;17.15;7.62;;;;;;;20.12;100.00;100478.80;1707427;82;21005;-56
2021/06/23 01:37:35;;;;;;;22.20;8.10;;;;;;;20.09;100.00;100479.89;1695607;82;21851;-56
2021/06/23 01:40:03;;;;;;;22.10;7.87;;;;;;;20.06;100.00;100483.38;1689198;83;21139;-56
2021/06/23 01:42:35;;;;;;;23.20;9.00;;;;;;;20.01;100.00;100490.05;1701188;82;20988;-56
2021/06/23 01:45:02;;;;;;;17.23;7.35;;;;;;;19.99;100.00;100489.28;1713433;82;21383;-56
2021/06/23 01:47:29;;;;;;;17.82;7.92;;;;;;;19.99;100.00;100486.55;1703952;82;21095;-55
2021/06/23 01:49:56;;;;;;;17.17;7.37;;;;;;;19.98;100.00;100488.91;1655965;85;22145;-56
2021/06/23 01:52:22;;;;;;;15.40;7.55;;;;;;;19.95;100.00;100489.16;1704457;82;20994;-55
2021/06/23 01:54:52;;;;;;;15.00;7.30;;;;;;;19.95;100.00;100500.55;1708288;82;21454;-56
2021/06/23 01:57:19;;;;;;;20.55;8.35;;;;;;;19.93;100.00;100495.21;1733230;81;20988;-55
2021/06/23 01:59:47;;;;;;;16.80;8.13;;;;;;;19.94;100.00;100491.50;1702532;82;21016;-56
2021/06/23 02:02:28;;;;;;;18.48;7.58;;;;;;;19.96;100.00;100484.08;1711069;80;34892;-55
2021/06/23 02:05:15;;;;;;;19.57;7.08;;;;;;;19.98;100.00;100475.81;1697184;82;21045;-56
2021/06/23 02:08:06;;;;;;;;;;;;;;;20.00;100.00;100474.69;1728590;80;20964;-58
2021/06/23 02:11:24;;;;;;;18.65;7.58;;;;;;;20.06;100.00;100467.05;1746572;80;20599;-58
2021/06/23 02:14:34;;;;;;;17.90;6.85;;;;;;;20.07;100.00;100470.14;1745226;80;21012;-58
2021/06/23 02:17:09;;;;;;;16.05;6.80;;;;;;;20.06;100.00;100477.93;1716111;80;21121;-58
2021/06/23 02:19:45;;;;;;;16.73;6.42;;;;;;;20.07;100.00;100487.31;1746356;80;20951;-58
2021/06/23 02:22:27;;;;;;;12.63;6.62;;;;;;;20.07;100.00;100494.11;1722625;80;20929;-58
2021/06/23 02:25:10;;;;;;;10.23;6.10;;;;;;;20.08;100.00;100494.48;1744559;80;21441;-58
2021/06/23 02:27:44;;;;;;;16.95;7.35;;;;;;;20.14;100.00;100496.74;1736697;80;21348;-60
2021/06/23 02:30:13;;;;;;;11.90;6.30;;;;;;;20.19;100.00;100493.63;1742905;80;21485;-58
2021/06/23 02:32:41;;;;;;;15.23;6.05;;;;;;;20.21;100.00;100499.81;1744666;80;21404;-58
2021/06/23 02:35:09;;;;;;;13.18;6.20;;;;;;;20.25;100.00;100497.24;1740243;80;20999;-57
2021/06/23 02:37:40;;;;;;;12.65;7.10;;;;;;;20.30;100.00;100497.73;1748302;80;21012;-56
2021/06/23 02:40:09;;;;;;;18.45;6.65;;;;;;;20.38;100.00;100498.96;1746277;80;21557;-55
2021/06/23 02:42:37;;;;;;;19.55;7.25;;;;;;;20.45;100.00;100498.86;1743399;80;21088;-56
2021/06/23 02:45:06;;;;;;;21.75;6.92;;;;;;;20.52;100.00;100500.08;1749558;80;20912;-55
2021/06/23 02:47:33;;;;;;;10.60;6.87;;;;;;;20.58;100.00;100502.30;1750895;80;21033;-56
2021/06/23 02:50:06;;;;;;;19.17;7.70;;;;;;;20.67;100.00;100503.89;1684220;81;21028;-56
2021/06/23 02:52:35;;;;;;;18.02;8.85;;;;;;;20.75;100.00;100504.14;1736709;80;21469;-56
2021/06/23 02:55:04;;;;;;;29.82;8.93;;;;;;;20.81;100.00;100506.39;1715072;80;21026;-55
2021/06/23 02:57:36;;;;;;;25.80;8.98;;;;;;;20.88;100.00;100506.75;1740235;80;20952;-56
2021/06/23 03:00:07;;;;;;;23.92;8.13;;;;;;;20.91;100.00;100514.67;1744159;80;21119;-55
2021/06/23 03:02:35;;;;;;;26.25;8.80;;;;;;;20.98;100.00;100517.24;1744074;80;28433;-55
2021/06/23 03:05:02;;;;;;;29.98;9.15;;;;;;;21.07;100.00;100519.70;1712297;81;20917;-56
2021/06/23 03:07:30;;;;;;;25.85;8.98;;;;;;;21.18;100.00;100525.14;1742720;80;21120;-56
2021/06/23 03:10:12;;;;;;;36.05;9.43;;;;;;;21.27;100.00;100529.44;1740351;80;21430;-55
2021/06/23 03:12:57;;;;;;;25.00;8.73;;;;;;;21.37;100.00;100530.89;1655826;85;21136;-56
2021/06/23 03:15:29;;;;;;;26.05;8.70;;;;;;;21.47;100.00;100538.17;1719424;80;21038;-56
2021/06/23 03:18:03;;;;;;;37.13;9.58;;;;;;;21.55;100.00;100542.97;1739187;80;21063;-56
2021/06/23 03:20:31;;;;;;;25.15;8.65;;;;;;;21.63;100.00;100550.51;1742579;80;21117;-56
2021/06/23 03:22:57;;;;;;;31.05;8.73;;;;;;;21.72;100.00;100555.20;1749466;80;21015;-56
2021/06/23 03:25:24;;;;;;;22.10;8.00;;;;;;;21.82;100.00;100561.25;1746183;80;21133;-55
2021/06/23 03:27:55;;;;;;;15.13;7.62;;;;;;;21.91;100.00;100560.44;1747671;80;21115;-56
2021/06/23 03:30:24;;;;;;;19.25;7.85;;;;;;;22.01;100.00;100560.52;1736922;80;20920;-56
2021/06/23 03:32:51;;;;;;;18.67;7.05;;;;;;;22.12;100.00;100563.67;1742641;80;21114;-56
2021/06/23 03:35:20;;;;;;;17.05;7.22;;;;;;;22.23;100.00;100559.52;1738867;80;21387;-58
2021/06/23 03:37:48;;;;;;;13.70;7.75;;;;;;;22.33;100.00;100565.04;1746675;80;21005;-59
2021/06/23 03:40:15;;;;;;;17.35;7.62;;;;;;;22.44;100.00;100567.67;1740929;80;21875;-58
2021/06/23 03:42:43;;;;;;;20.72;7.10;;;;;;;22.55;100.00;100576.31;1739451;80;20971;-58
2021/06/23 03:45:11;;;;;;;21.10;7.65;;;;;;;22.70;100.00;100570.49;1730679;80;22338;-59
2021/06/23 03:47:39;;;;;;;19.90;7.75;;;;;;;22.82;100.00;100572.10;1739774;80;21414;-59
2021/06/23 03:50:09;;;;;;;17.73;7.00;;;;;;;22.96;100.00;100572.73;1747400;80;20916;-57
2021/06/23 03:52:36;;;;;;;13.72;7.45;;;;;;;23.09;100.00;100567.86;1746593;80;20937;-57
2021/06/23 03:55:06;;;;;;;20.10;8.15;;;;;;;23.22;100.00;100572.22;1737086;80;21028;-58
2021/06/23 03:57:32;;;;;;;19.02;8.65;;;;;;;23.34;100.00;100571.14;1722138;82;21886;-58
2021/06/23 04:00:01;;;;;;;26.70;10.38;;;;;;;23.53;100.00;100573.51;1751992;80;20978;-57
2021/06/23 04:02:27;;;;;;;24.20;9.98;;;;;;;23.67;100.00;100570.88;1741416;80;32921;-56
2021/06/23 04:04:54;;;;;;;18.87;9.50;;;;;;;23.81;100.00;100575.89;1746219;80;21528;-56
2021/06/23 04:07:23;;;;;;;19.65;8.45;;;;;;;23.92;100.00;100572.14;1738801;80;21902;-56
2021/06/23 04:09:50;;;;;;;14.50;7.45;;;;;;;24.00;99.52;100574.16;1742078;80;21510;-56
2021/06/23 04:12:19;;;;;;;25.23;7.50;;;;;;;24.09;98.51;100576.03;1734540;80;21397;-56
2021/06/23 04:14:47;;;;;;;22.40;8.38;;;;;;;24.20;97.77;100566.78;1694422;82;21125;-57
2021/06/23 04:17:14;;;;;;;14.65;7.22;;;;;;;24.31;96.77;100565.27;1733261;80;20996;-56
2021/06/23 04:19:41;;;;;;;21.27;7.40;;;;;;;24.40;95.64;100566.73;1673341;82;21458;-56
2021/06/23 04:22:09;;;;;;;18.87;8.28;;;;;;;24.48;94.92;100574.22;1730397;81;21439;-57
2021/06/23 04:24:36;;;;;;;19.90;9.00;;;;;;;24.57;94.31;100567.86;1741266;80;21516;-57
2021/06/23 04:27:04;;;;;;;20.30;11.00;;;;;;;24.67;93.69;100569.19;1728782;81;21560;-56
2021/06/23 04:29:33;;;;;;;24.32;9.93;;;;;;;24.77;92.94;100564.55;1734124;81;21004;-57
2021/06/23 04:32:00;;;;;;;20.70;9.88;;;;;;;24.88;92.39;100573.96;1715136;82;21547;-57
2021/06/23 04:34:29;;;;;;;18.15;7.83;;;;;;;24.99;91.61;100566.04;1743333;80;21784;-56
2021/06/23 04:36:57;;;;;;;24.32;7.92;;;;;;;25.10;90.82;100574.56;1730977;81;20983;-61
2021/06/23 04:39:24;;;;;;;20.88;8.33;;;;;;;25.20;90.16;100573.63;1735084;81;21131;-60
2021/06/23 04:41:58;;;;;;;19.85;8.10;;;;;;;25.30;89.74;100571.67;1734340;80;21106;-60
2021/06/23 04:44:25;;;;;;;14.93;7.65;;;;;;;25.43;88.96;100568.05;1726090;80;21050;-61
2021/06/23 04:46:52;;;;;;;13.98;6.58;;;;;;;25.53;87.67;100580.36;1743705;80;21497;-61
2021/06/23 04:49:20;;;;;;;13.53;6.30;;;;;;;25.61;87.15;100574.09;1722913;80;21461;-59
2021/06/23 04:52:07;;;;;;;18.27;8.10;;;;;;;25.73;86.61;100581.05;1654465;85;21078;-60
2021/06/23 04:54:34;;;;;;;27.65;8.85;;;;;;;25.91;85.99;100584.83;1638163;85;21679;-59
2021/06/23 04:57:02;;;;;;;23.50;9.20;;;;;;;26.10;84.98;100584.65;1682359;81;20886;-61
2021/06/23 04:59:29;;;;;;;13.55;8.88;;;;;;;26.28;83.99;100588.75;1735640;81;22337;-59
2021/06/23 05:01:57;;;;;;;20.82;9.13;;;;;;;26.44;82.90;100589.37;1739451;81;38296;-62
2021/06/23 05:04:23;;;;;;;19.48;9.55;;;;;;;26.57;81.93;100590.30;1742361;81;21010;-59
2021/06/23 05:06:50;;;;;;;27.37;8.68;;;;;;;26.69;81.57;100590.03;1733277;81;21031;-60
2021/06/23 05:09:17;;;;;;;23.57;8.75;;;;;;;26.82;80.52;100596.45;1736432;80;21027;-60
2021/06/23 05:11:43;;;;;;;21.77;9.80;;;;;;;26.90;79.44;100605.30;1747433;80;22104;-60
2021/06/23 05:14:11;;;;;;;33.38;11.40;;;;;;;26.94;79.45;100608.06;1750821;80;20912;-60
2021/06/23 05:16:38;;;;;;;23.77;11.20;;;;;;;26.96;79.33;100607.38;1740602;80;20869;-60
2021/06/23 05:19:05;;;;;;;21.30;9.70;;;;;;;26.97;79.16;100615.98;1735948;80;21459;-60
2021/06/23 05:21:34;;;;;;;19.65;9.68;;;;;;;26.99;78.80;100613.92;1745493;80;21030;-60
2021/06/23 05:24:03;;;;;;;25.82;9.63;;;;;;;27.03;78.76;100609.80;1744655;80;21122;-59
2021/06/23 05:26:29;;;;;;;24.95;9.65;;;;;;;27.10;78.68;100605.88;1739487;80;21044;-60
2021/06/23 05:28:56;;;;;;;22.55;9.85;;;;;;;27.22;78.57;100602.31;1740721;80;21587;-59
2021/06/23 05:31:23;;;;;;;29.35;10.23;;;;;;;27.39;78.05;100601.34;1736995;80;21597;-60
2021/06/23 05:33:49;;;;;;;27.87;8.60;;;;;;;27.58;77.49;100606.23;1744293;80;21494;-60
2021/06/23 05:36:16;;;;;;;15.03;7.33;;;;;;;27.79;76.69;100605.73;1747100;80;21780;-60
2021/06/23 05:38:42;;;;;;;20.82;7.10;;;;;;;27.96;75.38;100602.98;1741201;80;21525;-60
2021/06/23 05:41:09;;;;;;;20.95;7.55;;;;;;;28.10;74.23;100606.94;1742383;80;20901;-60
2021/06/23 05:43:36;;;;;;;13.98;6.50;;;;;;;28.23;73.43;100611.96;1747503;80;21517;-59
2021/06/23 05:46:02;;;;;;;15.63;5.97;;;;;;;28.35;72.36;100615.22;1702732;82;21557;-60
2021/06/23 05:48:29;;;;;;;21.77;5.85;;;;;;;28.44;71.44;100619.70;1740298;80;20941;-60
2021/06/23 05:50:56;;;;;;;17.10;6.35;;;;;;;28.50;70.67;100625.89;1746368;80;21005;-60
2021/06/23 05:53:22;;;;;;;19.70;6.90;;;;;;;28.53;70.21;100622.77;1736795;80;21144;-61
2021/06/23 05:55:50;;;;;;;14.47;5.60;;;;;;;28.58;69.85;100628.62;1738512;80;21317;-61
2021/06/23 05:58:16;;;;;;;17.32;6.08;;;;;;;28.64;69.24;100632.58;1749650;80;21020;-60
2021/06/23 06:00:43;;;;;;;11.22;5.62;;;;;;;28.68;68.87;100632.56;1736663;80;21062;-60
2021/06/23 06:03:10;;;;;;;16.87;5.95;;;;;;;28.67;69.11;100634.98;1744725;80;21590;-60
2021/06/23 06:05:37;;;;;;;25.77;7.95;;;;;;;28.68;68.74;100633.09;1751022;80;21414;-60
2021/06/23 06:08:04;;;;;;;12.07;6.08;;;;;;;28.68;68.26;100634.47;1747747;80;21335;-57
2021/06/23 06:10:33;;;;;;;13.15;5.47;;;;;;;28.67;68.23;100629.46;1742419;80;21000;-60
2021/06/23 06:13:03;;;;;;;15.58;7.03;;;;;;;28.68;68.22;100627.05;1746700;80;21494;-60
2021/06/23 06:15:31;;;;;;;16.82;6.37;;;;;;;28.72;68.05;100624.27;1746904;80;21462;-60
2021/06/23 06:18:04;;;;;;;14.73;6.08;;;;;;;28.77;67.62;100621.52;1744390;80;20912;-60
2021/06/23 06:20:32;;;;;;;18.23;6.15;;;;;;;28.81;67.47;100621.00;1746354;80;20905;-60
2021/06/23 06:23:00;;;;;;;17.12;5.67;;;;;;;28.84;67.49;100620.64;1741826;80;21557;-60
2021/06/23 06:25:27;;;;;;;10.45;5.87;;;;;;;28.86;67.44;100625.50;1752605;80;21423;-60
2021/06/23 06:27:54;;;;;;;9.65;5.03;;;;;;;28.87;67.64;100620.31;1745142;80;20897;-59
2021/06/23 06:30:23;;;;;;;12.73;5.70;;;;;;;28.92;67.63;100621.14;1741891;80;21876;-60
2021/06/23 06:32:50;;;;;;;12.80;5.35;;;;;;;28.98;67.47;100620.95;1738571;80;21006;-60
2021/06/23 06:35:16;;;;;;;12.70;5.47;;;;;;;29.06;67.39;100616.77;1741393;80;21549;-60
2021/06/23 06:37:44;;;;;;;12.68;5.35;;;;;;;29.15;67.22;100609.31;1750209;80;21251;-60
2021/06/23 06:40:12;;;;;;;13.83;6.35;;;;;;;29.23;66.81;100620.34;1741857;80;21476;-61
2021/06/23 06:42:39;;;;;;;12.65;5.62;;;;;;;29.28;66.64;100619.77;1739741;80;21578;-60
2021/06/23 06:45:07;;;;;;;14.05;5.25;;;;;;;29.36;66.39;100625.27;1743748;80;20991;-61
2021/06/23 06:47:34;;;;;;;9.88;5.12;;;;;;;29.40;65.94;100626.63;1748532;80;21475;-61
2021/06/23 06:50:01;;;;;;;13.32;5.60;;;;;;;29.43;65.73;100628.20;1747123;80;21079;-60
2021/06/23 06:52:28;;;;;;;14.23;5.10;;;;;;;29.47;65.08;100625.41;1748682;80;20975;-61
2021/06/23 06:54:54;;;;;;;9.30;4.80;;;;;;;29.48;64.56;100624.38;1748384;80;21525;-61
2021/06/23 06:57:21;;;;;;;15.58;5.50;;;;;;;29.47;64.47;100612.11;1744332;80;21046;-61
2021/06/23 06:59:48;;;;;;;16.25;6.80;;;;;;;29.45;64.34;100617.30;1708530;82;21036;-61
2021/06/23 07:02:14;;;;;;;11.88;5.70;;;;;;;29.42;64.74;100621.81;1710317;80;37161;-61
2021/06/23 07:04:40;;;;;;;10.53;4.60;;;;;;;29.45;64.45;100619.22;1682752;83;21028;-60
2021/06/23 07:07:07;;;;;;;13.45;5.12;;;;;;;29.48;64.05;100624.88;1679688;83;21061;-60
2021/06/23 07:09:35;;;;;;;14.10;5.47;;;;;;;29.47;64.30;100627.30;1680227;83;21483;-61
2021/06/23 07:12:02;;;;;;;12.58;6.03;;;;;;;29.48;64.50;100620.73;1678785;82;21368;-60
2021/06/23 07:14:28;;;;;;;20.77;6.00;;;;;;;29.49;64.54;100616.42;1679945;83;21115;-61
2021/06/23 07:16:55;;;;;;;14.93;5.05;;;;;;;29.47;64.43;100617.63;1682098;83;21053;-61
2021/06/23 07:19:22;;;;;;;11.30;5.28;;;;;;;29.44;64.32;100623.02;1679279;83;21208;-61
2021/06/23 07:21:48;;;;;;;14.38;6.05;;;;;;;29.43;64.11;100629.05;1682248;83;21537;-60
2021/06/23 07:24:17;;;;;;;18.17;5.40;;;;;;;29.41;64.14;100633.89;1681881;83;21447;-61
2021/06/23 07:26:48;;;;;;;12.70;4.95;;;;;;;29.40;64.09;100646.45;1676091;83;21111;-61
2021/06/23 07:29:16;;;;;;;11.53;4.75;;;;;;;29.42;63.99;100645.81;1677647;83;21137;-59
2021/06/23 07:36:30;;;;;;;14.95;4.87;;;;;;;29.59;64.16;100642.42;1675195;83;21325;-59
2021/06/23 07:36:54;;;;;;;11.05;4.83;;;;;;;29.71;63.59;100643.72;1673719;83;21556;-57
2021/06/23 07:39:20;;;;;;;10.15;5.40;;;;;;;29.84;63.15;100651.93;1679543;83;21783;-57
2021/06/23 07:41:51;;;;;;;21.33;5.47;;;;;;;29.91;62.67;100655.67;1675659;83;21689;-57
2021/06/23 07:44:22;;;;;;;10.25;4.95;;;;;;;29.98;62.25;100654.41;1677255;83;21397;-57
2021/06/23 07:46:51;;;;;;;14.05;5.10;;;;;;;30.09;62.04;100659.56;1677910;83;21179;-57
2021/06/23 07:49:18;;;;;;;12.23;5.28;;;;;;;30.20;61.67;100656.00;1677027;83;21623;-58
2021/06/23 08:10:45;;;;;;;9.38;3.67;;;;;;;29.92;59.95;100667.05;1649963;84;21063;-58
2021/06/23 08:13:13;;;;;;;7.58;3.75;;;;;;;29.89;59.63;100674.34;1648699;84;21037;-58
2021/06/23 08:15:45;;;;;;;16.35;4.03;;;;;;;29.86;60.07;100674.20;1648587;85;21168;-59
2021/06/23 08:18:14;;;;;;;10.95;3.92;;;;;;;29.90;60.79;100680.20;1647993;84;21503;-59
2021/06/23 08:20:43;;;;;;;7.72;4.00;;;;;;;29.99;60.88;100679.62;1647987;85;21083;-59
2021/06/23 08:23:10;;;;;;;9.98;4.00;;;;;;;30.12;60.63;100688.71;1648901;84;21623;-58
2021/06/23 08:25:38;;;;;;;12.00;3.83;;;;;;;30.25;60.22;100694.49;1650002;85;21499;-58
2021/06/23 08:28:05;;;;;;;12.55;4.08;;;;;;;30.36;59.86;100682.64;1647567;84;21562;-58
2021/06/23 08:30:31;;;;;;;14.15;4.00;;;;;;;30.43;59.50;100684.48;1646404;85;21622;-59
2021/06/23 08:32:59;;;;;;;9.43;4.45;;;;;;;30.49;59.46;100688.41;1647902;84;21514;-59
2021/06/23 08:35:26;;;;;;;18.55;4.37;;;;;;;30.53;59.66;100689.75;1648937;84;21588;-59
2021/06/23 08:37:54;;;;;;;16.75;4.83;;;;;;;30.62;59.57;100689.69;1651735;85;21087;-59
2021/06/23 08:40:21;;;;;;;9.38;4.33;;;;;;;30.70;58.74;100689.62;1647683;85;21428;-59
2021/06/23 08:42:48;;;;;;;20.88;5.25;;;;;;;30.78;58.54;100685.38;1649251;84;21156;-58
2021/06/23 08:45:15;;;;;;;23.52;5.25;;;;;;;30.82;57.58;100686.71;1648654;85;21050;-60
2021/06/23 08:47:45;;;;;;;11.08;4.40;;;;;;;30.85;57.31;100681.34;1646690;84;21036;-57
2021/06/23 08:50:17;;;;;;;15.83;4.03;;;;;;;30.89;56.73;100678.52;1648290;84;21078;-58
2021/06/23 08:52:44;;;;;;;26.35;5.22;;;;;;;30.92;56.75;100678.67;1656104;84;21286;-58
2021/06/23 08:55:12;;;;;;;20.80;4.87;;;;;;;30.93;56.56;100674.86;1650139;84;21187;-58
2021/06/23 08:57:39;;;;;;;16.60;5.37;;;;;;;30.97;56.58;100673.42;1650304;84;22194;-58
2021/06/23 09:00:08;;;;;;;22.27;4.62;;;;;;;30.99;56.66;100679.62;1651142;84;21053;-58
2021/06/23 09:02:35;;;;;;;14.53;4.03;;;;;;;31.04;56.80;100681.28;1718432;80;95222;-58
2021/06/23 09:05:11;;;;;;;12.63;4.60;;;;;;;31.06;56.70;100676.45;1736441;80;21945;-58
2021/06/23 09:07:48;;;;;;;14.93;4.20;;;;;;;31.10;56.22;100687.46;1739014;80;21699;-61
2021/06/23 09:10:25;;;;;;;15.93;3.80;;;;;;;31.10;55.72;100683.31;1738867;80;21032;-61
2021/06/23 09:13:07;;;;;;;11.73;3.87;;;;;;;31.09;55.28;100679.34;1736872;80;21027;-61
2021/06/23 09:15:54;;;;;;;14.78;3.67;;;;;;;31.04;54.88;100682.67;1696419;82;20961;-61
2021/06/23 09:18:27;;;;;;;10.05;3.42;;;;;;;30.96;54.96;100680.01;1676431;83;21016;-61
2021/06/23 09:20:59;;;;;;;12.60;3.75;;;;;;;30.87;54.87;100680.11;1733338;80;21830;-61
2021/06/23 09:23:56;;;;;;;13.85;3.52;;;;;;;30.79;54.98;100680.19;1734755;80;21044;-58
2021/06/23 09:26:29;;;;;;;11.57;2.95;;;;;;;30.73;55.10;100676.80;1736505;80;20995;-58
2021/06/23 09:29:17;;;;;;;10.98;3.70;;;;;;;30.64;55.24;100680.70;1735941;80;21062;-58
2021/06/23 09:31:51;;;;;;;10.18;3.40;;;;;;;30.62;55.08;100682.77;1739664;80;21053;-58
2021/06/23 09:34:36;;;;;;;11.22;3.70;;;;;;;30.57;55.72;100680.02;1739411;80;21074;-58
2021/06/23 09:37:30;;;;;;;15.83;3.83;;;;;;;30.58;56.21;100683.12;1735293;80;20975;-57
2021/06/23 09:40:22;;;;;;;15.38;4.72;;;;;;;30.62;56.76;100681.39;1734265;80;21848;-58
2021/06/23 09:43:02;;;;;;;13.67;5.10;;;;;;;30.69;57.34;100674.92;1737596;80;21917;-58
2021/06/23 09:45:31;;;;;;;9.18;3.70;;;;;;;30.78;57.45;100682.61;1717057;81;21017;-57
2021/06/23 09:48:06;;;;;;;21.48;4.65;;;;;;;30.87;57.40;100678.73;1738905;80;21457;-59
2021/06/23 09:50:34;;;;;;;16.17;4.22;;;;;;;30.94;57.25;100684.34;1733099;80;21675;-59
2021/06/23 09:53:13;;;;;;;9.98;3.60;;;;;;;30.99;56.70;100682.39;1737772;80;21027;-58
2021/06/23 09:55:42;;;;;;;18.30;3.87;;;;;;;31.03;55.67;100687.87;1732416;80;20961;-57
2021/06/23 09:58:14;;;;;;;16.73;3.87;;;;;;;30.97;54.92;100685.37;1739007;80;21114;-58
2021/06/23 10:01:02;;;;;;;9.90;3.62;;;;;;;30.89;54.78;100679.06;1735433;80;21178;-58
2021/06/23 10:03:34;;;;;;;9.48;3.27;;;;;;;30.75;54.86;100680.77;1730152;80;21437;-58
2021/06/23 10:06:20;;;;;;;13.15;3.65;;;;;;;30.58;55.31;100678.13;1678777;82;21030;-59
2021/06/23 10:08:47;;;;;;;13.15;4.00;;;;;;;30.47;55.61;100683.59;1697302;82;21063;-58
2021/06/23 10:11:29;;;;;;;10.43;3.50;;;;;;;30.41;55.99;100682.42;1736197;80;20967;-58
2021/06/23 10:13:56;;;;;;;19.07;4.53;;;;;;;30.36;56.03;100682.64;1715470;81;21658;-59
2021/06/23 10:16:25;;;;;;;10.82;3.50;;;;;;;30.28;56.34;100678.03;1734994;81;21518;-59
2021/06/23 10:18:53;;;;;;;9.30;3.33;;;;;;;30.18;56.69;100676.94;1729633;81;21378;-60
2021/06/23 10:21:21;;;;;;;7.70;3.70;;;;;;;30.12;56.99;100674.89;1735068;81;21015;-59
2021/06/23 10:23:48;;;;;;;10.82;3.52;;;;;;;30.09;57.29;100671.13;1733200;80;21488;-57
2021/06/23 10:26:17;;;;;;;13.43;3.90;;;;;;;30.07;57.20;100673.21;1735235;81;21464;-56
2021/06/23 10:28:49;;;;;;;7.35;3.25;;;;;;;30.06;57.37;100679.78;1732887;81;20948;-56
2021/06/23 10:31:16;;;;;;;10.75;3.37;;;;;;;30.05;57.42;100668.39;1734020;81;21086;-57
2021/06/23 10:33:43;;;;;;;13.83;4.00;;;;;;;29.99;57.81;100673.59;1713183;81;21067;-57
2021/06/23 10:36:09;;;;;;;7.70;4.45;;;;;;;29.92;57.76;100667.59;1730042;81;21160;-57
2021/06/23 10:38:36;;;;;;;10.85;4.00;;;;;;;29.86;57.92;100669.18;1732816;81;21146;-57
2021/06/23 10:41:04;;;;;;;10.85;3.20;;;;;;;29.79;58.13;100662.68;1733232;81;21498;-56
2021/06/23 10:43:30;;;;;;;12.93;3.62;;;;;;;29.73;58.61;100663.76;1735202;81;20874;-57
2021/06/23 10:45:57;;;;;;;13.98;4.20;;;;;;;29.71;58.64;100660.28;1734969;81;20979;-56
2021/06/23 10:48:23;;;;;;;9.63;3.72;;;;;;;29.65;59.17;100649.98;1730088;81;21162;-56
2021/06/23 10:50:52;;;;;;;13.20;3.98;;;;;;;29.60;59.57;100653.81;1694318;82;21026;-56
2021/06/23 10:53:34;;;;;;;13.62;3.40;;;;;;;29.57;59.95;100648.66;1731509;81;21035;-57
2021/06/23 10:56:04;;;;;;;11.65;3.80;;;;;;;29.56;59.83;100657.98;1733214;80;20976;-55
2021/06/23 10:58:34;;;;;;;14.15;3.60;;;;;;;29.57;60.08;100651.42;1736328;80;20980;-56
2021/06/23 11:01:12;;;;;;;10.70;3.87;;;;;;;29.56;59.95;100659.37;1732957;81;21697;-56
2021/06/23 11:04:03;;;;;;;11.43;4.05;;;;;;;29.56;60.02;100663.52;1729720;81;21405;-56
2021/06/23 11:06:45;;;;;;;18.75;3.67;;;;;;;29.55;60.01;100666.78;1731482;81;20904;-57
2021/06/23 11:09:26;;;;;;;14.40;4.00;;;;;;;29.53;59.84;100665.26;1731727;80;21043;-56
2021/06/23 11:11:53;;;;;;;12.58;3.92;;;;;;;29.46;59.98;100667.87;1736620;80;21104;-57
2021/06/23 11:14:21;;;;;;;19.62;3.95;;;;;;;29.42;60.29;100663.23;1736932;80;20941;-57
2021/06/23 11:16:48;;;;;;;11.93;4.40;;;;;;;29.40;60.38;100662.52;1698142;82;21700;-56
2021/06/23 11:19:15;;;;;;;24.75;4.58;;;;;;;29.36;60.61;100658.40;1677677;83;21110;-56
2021/06/23 11:21:45;;;;;;;10.50;4.20;;;;;;;29.34;60.64;100667.89;1737113;80;21024;-57
2021/06/23 11:24:17;;;;;;;14.03;4.28;;;;;;;29.32;60.71;100665.33;1737466;80;20923;-56
2021/06/23 11:26:51;;;;;;;12.98;5.33;;;;;;;29.28;60.80;100664.81;1720321;81;21510;-55
2021/06/23 11:29:21;;;;;;;20.93;4.33;;;;;;;29.22;61.75;100663.28;1737684;80;21118;-56
2021/06/23 11:31:59;;;;;;;8.03;4.78;;;;;;;29.22;61.75;100663.28;1735513;80;21600;-56
2021/06/23 11:34:43;;;;;;;12.40;3.95;;;;;;;29.19;61.98;100657.63;1736869;80;21031;-59
2021/06/23 11:37:17;;;;;;;28.42;5.08;;;;;;;29.14;62.05;100659.53;1678515;84;20981;-59
2021/06/23 11:39:44;;;;;;;;;;;;;;;29.07;62.47;100662.67;1704775;82;20985;-59
2021/06/23 11:42:12;;;;;;;10.98;4.30;;;;;;;29.00;62.77;100658.38;1699014;82;21108;-59
2021/06/23 11:44:39;;;;;;;10.72;4.05;;;;;;;28.95;62.78;100658.03;1677198;83;21644;-59
2021/06/23 11:47:07;;;;;;;14.00;4.50;;;;;;;28.90;62.97;100659.62;1734356;80;21368;-59
2021/06/23 11:49:35;;;;;;;10.78;4.30;;;;;;;28.86;63.25;100668.77;1737040;80;21473;-59
2021/06/23 11:52:05;;;;;;;15.72;4.30;;;;;;;28.80;63.04;100662.04;1700716;82;21426;-59